Huvudsida
METAR-TAF:

METAR-TAF

Flygplatser :

Sions flygplats

Sion, Schweiz

latitud: 46-13N, longitud: 007-20E, höjd: 482 m

Aktuellt väderrapport

Denna rapport gjordes för 14 minuter sedan, klockan 23:50 UTC
Vind 4 kt från ost
Temperatur 4°C
Fuktighet 87%
Tryck 1004 hPa
Sikt 10 km eller mer

METAR: LSGS 152350Z AUTO 09004KT 9999 //////TCU 04/02 Q1004

Tid: 01:04 (00:04 UTC)

Väderprognos

Denna rapport gjordes för 9 timmar och 39 minuter sedan, klockan 14:25 UTC
Prognos gäller från 15 kl. 15 UTC till 15 kl. 24 UTC
Vind 3 kt varierande vindriktning
Sikt 10 km eller mer
Få moln på en höjd av 3000 ft

TAF: LSGS 151425Z 1515/1524 VRB03KT 9999 FEW030

Aktuella väderrapporter och prognoser från 4000 flygplatser (METAR- och TAF-rapporter).

De tillgängliga stationerna syns som gula och röda prickar på kartan.

För musen över prickarna för att se namnen på stationerna.

Klicka sedan för att få väderrapporter och prognoser.

För att ändra kartan: Klicka på de gröna knapparna med ett svart kors på för att zooma in; den gröna knappen med ett streck på för att zooma ut; eller på de gröna pilarna för angränsande kartor.


METAR-TAF: